Warco, Kentucky
Current Conditions -  °F | °C
As of 3:15 PM on Thursday 30 Oct 2014 (Local Time) from KPBX Reporting Station
Overcast Overcast  
Wind Chill: 50°   Ceiling: 3400
Heat Index: 50°   Visibility: 10mi
Dew Point: 35°   Wind: 5mph
Humidity: 56%   Direction: 70°ENE
Pressure: 30.07"   Gusts: NA
Location:  37.5428°N, 82.8043°W
Report Text: KPBX 301915Z AUTO 07004KT 10SM OVC034 10/02 A3007 RMK AO2 T01020017
Loading
Personal Weather Stations






























Interactive Weather Map
Tropical Storm Tracking
New forecast layout! Learn more

10-Day Weather Forecast

Advertisements
Track Severe Weather on mobile